Terminal Aerodrome Forecast
Issued by NWS

Home | Current Version | Previous Version | Text Only | Print | Product List | Glossary On
Versions: 1 2 3 4 5 6 7 8 9 10 11 12 13 14 15 16
920
FTUS45 KTFX 061120
TAFGTF
TAF
KGTF 061120Z 0612/0712 36008KT P6SM VCSH SCT008 OVC035
      TEMPO 0612/0615 -SHRA BKN008
     FM061800 05007KT P6SM SCT020 OVC050
     FM062200 08010KT P6SM SCT050 BKN090=

USA.gov is the U.S. government's official web portal to all federal, state and local government web resources and services.